sensor_id;sensor_type;location;lat;lon;timestamp;P1;durP1;ratioP1;P2;durP2;ratioP2
60582;SDS011;46415;47.536;19.066;2023-05-20T00:00:59;7.00;;;6.32;;
60582;SDS011;46415;47.536;19.066;2023-05-20T00:04:02;7.30;;;6.60;;
60582;SDS011;46415;47.536;19.066;2023-05-20T00:07:05;7.87;;;6.82;;
60582;SDS011;46415;47.536;19.066;2023-05-20T00:10:08;6.97;;;6.37;;
60582;SDS011;46415;47.536;19.066;2023-05-20T00:13:12;7.10;;;6.45;;
60582;SDS011;46415;47.536;19.066;2023-05-20T00:16:14;8.60;;;7.70;;
60582;SDS011;46415;47.536;19.066;2023-05-20T00:19:17;8.80;;;7.10;;
60582;SDS011;46415;47.536;19.066;2023-05-20T00:22:20;7.93;;;7.12;;
60582;SDS011;46415;47.536;19.066;2023-05-20T00:25:23;7.62;;;6.93;;
60582;SDS011;46415;47.536;19.066;2023-05-20T00:28:26;8.85;;;7.50;;
60582;SDS011;46415;47.536;19.066;2023-05-20T00:31:28;7.97;;;7.22;;
60582;SDS011;46415;47.536;19.066;2023-05-20T00:34:31;7.45;;;6.75;;
60582;SDS011;46415;47.536;19.066;2023-05-20T00:37:34;9.35;;;7.25;;
60582;SDS011;46415;47.536;19.066;2023-05-20T00:40:37;7.65;;;6.43;;
60582;SDS011;46415;47.536;19.066;2023-05-20T00:43:40;8.73;;;7.37;;
60582;SDS011;46415;47.536;19.066;2023-05-20T00:46:43;8.07;;;7.12;;
60582;SDS011;46415;47.536;19.066;2023-05-20T00:49:47;7.95;;;7.12;;
60582;SDS011;46415;47.536;19.066;2023-05-20T00:52:53;7.20;;;6.50;;
60582;SDS011;46415;47.536;19.066;2023-05-20T00:55:56;7.28;;;6.60;;
60582;SDS011;46415;47.536;19.066;2023-05-20T00:58:59;8.57;;;6.90;;
60582;SDS011;46415;47.536;19.066;2023-05-20T01:02:05;7.20;;;6.47;;
60582;SDS011;46415;47.536;19.066;2023-05-20T01:05:08;7.45;;;6.72;;
60582;SDS011;46415;47.536;19.066;2023-05-20T01:08:11;7.47;;;6.72;;
60582;SDS011;46415;47.536;19.066;2023-05-20T01:11:17;7.65;;;6.87;;
60582;SDS011;46415;47.536;19.066;2023-05-20T01:14:28;8.52;;;6.90;;
60582;SDS011;46415;47.536;19.066;2023-05-20T01:17:34;8.20;;;6.82;;
60582;SDS011;46415;47.536;19.066;2023-05-20T01:20:39;7.62;;;6.93;;
60582;SDS011;46415;47.536;19.066;2023-05-20T01:23:43;7.22;;;6.53;;
60582;SDS011;46415;47.536;19.066;2023-05-20T01:26:45;7.53;;;6.82;;
60582;SDS011;46415;47.536;19.066;2023-05-20T01:29:50;7.60;;;6.82;;
60582;SDS011;46415;47.536;19.066;2023-05-20T01:32:57;7.82;;;7.03;;
60582;SDS011;46415;47.536;19.066;2023-05-20T01:36:05;8.40;;;7.10;;
60582;SDS011;46415;47.536;19.066;2023-05-20T01:39:08;8.60;;;7.68;;
60582;SDS011;46415;47.536;19.066;2023-05-20T01:42:12;10.35;;;7.10;;
60582;SDS011;46415;47.536;19.066;2023-05-20T01:45:16;8.07;;;7.28;;
60582;SDS011;46415;47.536;19.066;2023-05-20T01:48:19;10.15;;;7.50;;
60582;SDS011;46415;47.536;19.066;2023-05-20T01:51:22;8.10;;;7.30;;
60582;SDS011;46415;47.536;19.066;2023-05-20T01:54:25;9.23;;;7.25;;
60582;SDS011;46415;47.536;19.066;2023-05-20T01:57:27;8.10;;;7.03;;
60582;SDS011;46415;47.536;19.066;2023-05-20T02:00:31;8.02;;;7.22;;
60582;SDS011;46415;47.536;19.066;2023-05-20T02:03:35;8.43;;;7.55;;
60582;SDS011;46415;47.536;19.066;2023-05-20T02:06:39;7.75;;;6.90;;
60582;SDS011;46415;47.536;19.066;2023-05-20T02:09:42;7.35;;;6.53;;
60582;SDS011;46415;47.536;19.066;2023-05-20T02:12:44;8.52;;;7.68;;
60582;SDS011;46415;47.536;19.066;2023-05-20T02:15:49;10.38;;;7.28;;
60582;SDS011;46415;47.536;19.066;2023-05-20T02:18:52;8.15;;;7.35;;
60582;SDS011;46415;47.536;19.066;2023-05-20T02:21:56;9.50;;;8.20;;
60582;SDS011;46415;47.536;19.066;2023-05-20T02:24:59;9.70;;;7.72;;
60582;SDS011;46415;47.536;19.066;2023-05-20T02:28:02;8.77;;;7.72;;
60582;SDS011;46415;47.536;19.066;2023-05-20T02:31:07;8.68;;;7.37;;
60582;SDS011;46415;47.536;19.066;2023-05-20T02:34:10;8.15;;;7.35;;
60582;SDS011;46415;47.536;19.066;2023-05-20T02:37:13;9.75;;;7.87;;
60582;SDS011;46415;47.536;19.066;2023-05-20T02:40:16;8.10;;;7.37;;
60582;SDS011;46415;47.536;19.066;2023-05-20T02:43:19;8.55;;;7.68;;
60582;SDS011;46415;47.536;19.066;2023-05-20T02:46:21;8.60;;;7.65;;
60582;SDS011;46415;47.536;19.066;2023-05-20T02:49:24;8.05;;;7.25;;
60582;SDS011;46415;47.536;19.066;2023-05-20T02:52:27;8.07;;;7.35;;
60582;SDS011;46415;47.536;19.066;2023-05-20T02:55:32;7.87;;;7.07;;
60582;SDS011;46415;47.536;19.066;2023-05-20T02:58:37;10.10;;;7.83;;
60582;SDS011;46415;47.536;19.066;2023-05-20T03:01:40;9.00;;;7.87;;
60582;SDS011;46415;47.536;19.066;2023-05-20T03:04:43;8.35;;;7.60;;
60582;SDS011;46415;47.536;19.066;2023-05-20T03:07:48;9.27;;;7.55;;
60582;SDS011;46415;47.536;19.066;2023-05-20T03:10:51;8.52;;;7.53;;
60582;SDS011;46415;47.536;19.066;2023-05-20T03:13:55;8.05;;;7.25;;
60582;SDS011;46415;47.536;19.066;2023-05-20T03:16:58;8.35;;;7.50;;
60582;SDS011;46415;47.536;19.066;2023-05-20T03:20:01;7.87;;;7.07;;
60582;SDS011;46415;47.536;19.066;2023-05-20T03:23:08;9.80;;;8.07;;
60582;SDS011;46415;47.536;19.066;2023-05-20T03:26:12;8.45;;;7.65;;
60582;SDS011;46415;47.536;19.066;2023-05-20T03:29:15;8.95;;;7.07;;
60582;SDS011;46415;47.536;19.066;2023-05-20T03:32:22;8.65;;;7.65;;
60582;SDS011;46415;47.536;19.066;2023-05-20T03:35:25;7.87;;;7.18;;
60582;SDS011;46415;47.536;19.066;2023-05-20T03:38:29;8.25;;;7.47;;
60582;SDS011;46415;47.536;19.066;2023-05-20T03:41:32;7.25;;;6.57;;
60582;SDS011;46415;47.536;19.066;2023-05-20T03:44:36;8.18;;;7.35;;
60582;SDS011;46415;47.536;19.066;2023-05-20T03:47:39;7.95;;;7.22;;
60582;SDS011;46415;47.536;19.066;2023-05-20T03:50:41;9.32;;;7.30;;
60582;SDS011;46415;47.536;19.066;2023-05-20T03:53:45;9.23;;;6.87;;
60582;SDS011;46415;47.536;19.066;2023-05-20T03:56:47;8.90;;;7.37;;
60582;SDS011;46415;47.536;19.066;2023-05-20T03:59:50;7.55;;;6.82;;
60582;SDS011;46415;47.536;19.066;2023-05-20T04:02:53;9.23;;;7.87;;
60582;SDS011;46415;47.536;19.066;2023-05-20T04:05:57;8.77;;;7.00;;
60582;SDS011;46415;47.536;19.066;2023-05-20T04:09:00;8.07;;;6.70;;
60582;SDS011;46415;47.536;19.066;2023-05-20T04:12:06;8.05;;;7.10;;
60582;SDS011;46415;47.536;19.066;2023-05-20T04:15:08;7.62;;;6.93;;
60582;SDS011;46415;47.536;19.066;2023-05-20T04:18:12;7.68;;;6.93;;
60582;SDS011;46415;47.536;19.066;2023-05-20T04:21:16;7.78;;;6.80;;
60582;SDS011;46415;47.536;19.066;2023-05-20T04:24:20;8.30;;;7.40;;
60582;SDS011;46415;47.536;19.066;2023-05-20T04:27:26;8.65;;;6.40;;
60582;SDS011;46415;47.536;19.066;2023-05-20T04:30:30;9.60;;;6.90;;
60582;SDS011;46415;47.536;19.066;2023-05-20T04:33:35;7.20;;;6.50;;
60582;SDS011;46415;47.536;19.066;2023-05-20T04:36:41;7.82;;;6.68;;
60582;SDS011;46415;47.536;19.066;2023-05-20T04:39:44;7.93;;;6.45;;
60582;SDS011;46415;47.536;19.066;2023-05-20T04:42:49;7.12;;;6.50;;
60582;SDS011;46415;47.536;19.066;2023-05-20T04:45:53;8.50;;;6.57;;
60582;SDS011;46415;47.536;19.066;2023-05-20T04:48:56;8.20;;;6.32;;
60582;SDS011;46415;47.536;19.066;2023-05-20T04:51:58;6.85;;;6.15;;
60582;SDS011;46415;47.536;19.066;2023-05-20T04:55:02;8.27;;;6.75;;
60582;SDS011;46415;47.536;19.066;2023-05-20T04:58:05;8.18;;;6.32;;
60582;SDS011;46415;47.536;19.066;2023-05-20T05:01:09;6.95;;;5.95;;
60582;SDS011;46415;47.536;19.066;2023-05-20T05:04:12;9.18;;;5.80;;
60582;SDS011;46415;47.536;19.066;2023-05-20T05:07:15;7.03;;;6.35;;
60582;SDS011;46415;47.536;19.066;2023-05-20T05:10:18;6.82;;;6.12;;
60582;SDS011;46415;47.536;19.066;2023-05-20T05:13:22;6.95;;;6.25;;
60582;SDS011;46415;47.536;19.066;2023-05-20T05:16:24;8.77;;;6.60;;
60582;SDS011;46415;47.536;19.066;2023-05-20T05:19:27;7.12;;;6.32;;
60582;SDS011;46415;47.536;19.066;2023-05-20T05:22:30;6.62;;;6.00;;
60582;SDS011;46415;47.536;19.066;2023-05-20T05:25:33;5.95;;;5.45;;
60582;SDS011;46415;47.536;19.066;2023-05-20T05:28:36;6.55;;;5.90;;
60582;SDS011;46415;47.536;19.066;2023-05-20T05:31:39;6.82;;;6.07;;
60582;SDS011;46415;47.536;19.066;2023-05-20T05:34:42;6.62;;;5.37;;
60582;SDS011;46415;47.536;19.066;2023-05-20T05:37:45;6.93;;;6.10;;
60582;SDS011;46415;47.536;19.066;2023-05-20T05:40:48;7.95;;;5.78;;
60582;SDS011;46415;47.536;19.066;2023-05-20T05:43:51;5.95;;;5.35;;
60582;SDS011;46415;47.536;19.066;2023-05-20T05:46:54;6.95;;;5.80;;
60582;SDS011;46415;47.536;19.066;2023-05-20T05:49:57;6.72;;;6.03;;
60582;SDS011;46415;47.536;19.066;2023-05-20T05:53:01;8.00;;;5.93;;
60582;SDS011;46415;47.536;19.066;2023-05-20T05:56:05;6.10;;;5.55;;
60582;SDS011;46415;47.536;19.066;2023-05-20T05:59:08;6.93;;;5.50;;
60582;SDS011;46415;47.536;19.066;2023-05-20T06:02:11;6.07;;;5.47;;
60582;SDS011;46415;47.536;19.066;2023-05-20T06:05:16;6.15;;;5.30;;
60582;SDS011;46415;47.536;19.066;2023-05-20T06:08:19;6.97;;;5.78;;
60582;SDS011;46415;47.536;19.066;2023-05-20T06:11:22;6.57;;;5.53;;
60582;SDS011;46415;47.536;19.066;2023-05-20T06:14:26;8.07;;;5.85;;
60582;SDS011;46415;47.536;19.066;2023-05-20T06:17:29;7.70;;;6.10;;
60582;SDS011;46415;47.536;19.066;2023-05-20T06:20:32;6.03;;;5.43;;
60582;SDS011;46415;47.536;19.066;2023-05-20T06:23:35;6.70;;;6.00;;
60582;SDS011;46415;47.536;19.066;2023-05-20T06:26:38;7.60;;;6.10;;
60582;SDS011;46415;47.536;19.066;2023-05-20T06:29:42;6.65;;;5.60;;
60582;SDS011;46415;47.536;19.066;2023-05-20T06:32:45;7.78;;;5.55;;
60582;SDS011;46415;47.536;19.066;2023-05-20T06:35:48;8.50;;;6.00;;
60582;SDS011;46415;47.536;19.066;2023-05-20T06:38:51;7.50;;;6.10;;
60582;SDS011;46415;47.536;19.066;2023-05-20T06:41:54;6.60;;;5.75;;
60582;SDS011;46415;47.536;19.066;2023-05-20T06:44:59;6.78;;;5.47;;
60582;SDS011;46415;47.536;19.066;2023-05-20T06:48:05;5.68;;;5.05;;
60582;SDS011;46415;47.536;19.066;2023-05-20T06:51:08;8.30;;;5.87;;
60582;SDS011;46415;47.536;19.066;2023-05-20T06:54:12;6.22;;;5.65;;
60582;SDS011;46415;47.536;19.066;2023-05-20T06:57:16;6.50;;;5.78;;
60582;SDS011;46415;47.536;19.066;2023-05-20T07:00:19;6.45;;;5.82;;
60582;SDS011;46415;47.536;19.066;2023-05-20T07:03:22;7.28;;;5.53;;
60582;SDS011;46415;47.536;19.066;2023-05-20T07:06:25;10.40;;;6.15;;
60582;SDS011;46415;47.536;19.066;2023-05-20T07:09:28;7.47;;;6.12;;
60582;SDS011;46415;47.536;19.066;2023-05-20T07:12:31;6.62;;;5.80;;
60582;SDS011;46415;47.536;19.066;2023-05-20T07:15:38;7.20;;;6.03;;
60582;SDS011;46415;47.536;19.066;2023-05-20T07:18:41;7.85;;;6.10;;
60582;SDS011;46415;47.536;19.066;2023-05-20T07:21:43;6.53;;;5.93;;
60582;SDS011;46415;47.536;19.066;2023-05-20T07:24:47;6.57;;;5.80;;
60582;SDS011;46415;47.536;19.066;2023-05-20T07:27:49;6.50;;;5.90;;
60582;SDS011;46415;47.536;19.066;2023-05-20T07:30:52;9.18;;;6.22;;
60582;SDS011;46415;47.536;19.066;2023-05-20T07:33:57;6.90;;;5.78;;
60582;SDS011;46415;47.536;19.066;2023-05-20T07:37:00;6.93;;;6.22;;
60582;SDS011;46415;47.536;19.066;2023-05-20T07:40:03;7.18;;;6.47;;
60582;SDS011;46415;47.536;19.066;2023-05-20T07:43:07;7.80;;;6.20;;
60582;SDS011;46415;47.536;19.066;2023-05-20T07:46:11;7.53;;;6.20;;
60582;SDS011;46415;47.536;19.066;2023-05-20T07:49:14;8.45;;;6.07;;
60582;SDS011;46415;47.536;19.066;2023-05-20T07:52:17;7.30;;;6.30;;
60582;SDS011;46415;47.536;19.066;2023-05-20T07:55:20;8.20;;;6.15;;
60582;SDS011;46415;47.536;19.066;2023-05-20T07:58:23;6.62;;;5.93;;
60582;SDS011;46415;47.536;19.066;2023-05-20T08:01:26;6.90;;;6.20;;
60582;SDS011;46415;47.536;19.066;2023-05-20T08:04:30;7.47;;;6.28;;
60582;SDS011;46415;47.536;19.066;2023-05-20T08:07:33;7.43;;;6.22;;
60582;SDS011;46415;47.536;19.066;2023-05-20T08:10:36;7.80;;;5.90;;
60582;SDS011;46415;47.536;19.066;2023-05-20T08:13:38;7.07;;;6.35;;
60582;SDS011;46415;47.536;19.066;2023-05-20T08:16:42;9.10;;;6.45;;
60582;SDS011;46415;47.536;19.066;2023-05-20T08:19:45;7.37;;;6.60;;
60582;SDS011;46415;47.536;19.066;2023-05-20T08:22:48;7.62;;;6.15;;
60582;SDS011;46415;47.536;19.066;2023-05-20T08:25:50;6.68;;;6.05;;
60582;SDS011;46415;47.536;19.066;2023-05-20T08:28:54;8.32;;;6.47;;
60582;SDS011;46415;47.536;19.066;2023-05-20T08:31:57;7.37;;;6.40;;
60582;SDS011;46415;47.536;19.066;2023-05-20T08:35:00;7.50;;;6.12;;
60582;SDS011;46415;47.536;19.066;2023-05-20T08:38:03;6.37;;;5.78;;
60582;SDS011;46415;47.536;19.066;2023-05-20T08:41:07;6.53;;;5.90;;
60582;SDS011;46415;47.536;19.066;2023-05-20T08:44:11;7.45;;;6.37;;
60582;SDS011;46415;47.536;19.066;2023-05-20T08:47:15;8.23;;;6.28;;
60582;SDS011;46415;47.536;19.066;2023-05-20T08:50:18;6.37;;;5.75;;
60582;SDS011;46415;47.536;19.066;2023-05-20T08:53:21;9.38;;;6.18;;
60582;SDS011;46415;47.536;19.066;2023-05-20T08:56:23;7.03;;;6.35;;
60582;SDS011;46415;47.536;19.066;2023-05-20T08:59:32;8.68;;;6.20;;
60582;SDS011;46415;47.536;19.066;2023-05-20T09:02:36;8.05;;;6.22;;
60582;SDS011;46415;47.536;19.066;2023-05-20T09:05:39;8.02;;;5.75;;
60582;SDS011;46415;47.536;19.066;2023-05-20T09:08:42;7.80;;;6.28;;
60582;SDS011;46415;47.536;19.066;2023-05-20T09:11:46;7.00;;;6.22;;
60582;SDS011;46415;47.536;19.066;2023-05-20T09:14:48;9.52;;;6.22;;
60582;SDS011;46415;47.536;19.066;2023-05-20T09:17:51;8.18;;;6.60;;
60582;SDS011;46415;47.536;19.066;2023-05-20T09:20:54;7.15;;;6.45;;
60582;SDS011;46415;47.536;19.066;2023-05-20T09:24:00;6.85;;;6.05;;
60582;SDS011;46415;47.536;19.066;2023-05-20T09:27:03;6.97;;;6.28;;
60582;SDS011;46415;47.536;19.066;2023-05-20T09:30:07;6.93;;;6.22;;
60582;SDS011;46415;47.536;19.066;2023-05-20T09:33:10;6.68;;;6.00;;
60582;SDS011;46415;47.536;19.066;2023-05-20T09:36:14;6.85;;;6.15;;
60582;SDS011;46415;47.536;19.066;2023-05-20T09:39:18;7.60;;;6.22;;
60582;SDS011;46415;47.536;19.066;2023-05-20T09:42:43;7.00;;;6.30;;
60582;SDS011;46415;47.536;19.066;2023-05-20T09:45:51;8.02;;;6.15;;
60582;SDS011;46415;47.536;19.066;2023-05-20T09:48:56;7.97;;;6.05;;
60582;SDS011;46415;47.536;19.066;2023-05-20T09:52:01;6.72;;;6.12;;
60582;SDS011;46415;47.536;19.066;2023-05-20T09:55:05;7.82;;;5.93;;
60582;SDS011;46415;47.536;19.066;2023-05-20T09:58:09;8.45;;;6.32;;
60582;SDS011;46415;47.536;19.066;2023-05-20T10:01:17;6.50;;;5.82;;
60582;SDS011;46415;47.536;19.066;2023-05-20T10:04:20;7.00;;;5.65;;
60582;SDS011;46415;47.536;19.066;2023-05-20T10:14:29;6.50;;;5.90;;
60582;SDS011;46415;47.536;19.066;2023-05-20T10:20:57;7.53;;;6.30;;
60582;SDS011;46415;47.536;19.066;2023-05-20T10:24:07;7.68;;;6.00;;
60582;SDS011;46415;47.536;19.066;2023-05-20T10:27:12;6.53;;;5.93;;
60582;SDS011;46415;47.536;19.066;2023-05-20T10:30:18;6.03;;;5.37;;
60582;SDS011;46415;47.536;19.066;2023-05-20T10:33:21;5.95;;;5.32;;
60582;SDS011;46415;47.536;19.066;2023-05-20T10:36:25;6.78;;;5.87;;
60582;SDS011;46415;47.536;19.066;2023-05-20T10:39:30;7.07;;;6.10;;
60582;SDS011;46415;47.536;19.066;2023-05-20T10:42:37;6.18;;;5.55;;
60582;SDS011;46415;47.536;19.066;2023-05-20T10:45:50;7.40;;;5.90;;
60582;SDS011;46415;47.536;19.066;2023-05-20T10:48:55;7.53;;;6.00;;
60582;SDS011;46415;47.536;19.066;2023-05-20T10:51:58;6.40;;;5.80;;
60582;SDS011;46415;47.536;19.066;2023-05-20T10:55:01;8.27;;;5.47;;
60582;SDS011;46415;47.536;19.066;2023-05-20T10:58:06;7.82;;;6.18;;
60582;SDS011;46415;47.536;19.066;2023-05-20T11:01:09;7.57;;;6.00;;
60582;SDS011;46415;47.536;19.066;2023-05-20T11:04:13;10.85;;;6.57;;
60582;SDS011;46415;47.536;19.066;2023-05-20T11:10:32;8.07;;;6.07;;
60582;SDS011;46415;47.536;19.066;2023-05-20T11:13:37;6.43;;;5.82;;
60582;SDS011;46415;47.536;19.066;2023-05-20T11:16:40;6.25;;;5.53;;
60582;SDS011;46415;47.536;19.066;2023-05-20T11:19:44;6.68;;;5.53;;
60582;SDS011;46415;47.536;19.066;2023-05-20T11:22:48;7.12;;;6.43;;
60582;SDS011;46415;47.536;19.066;2023-05-20T11:25:52;7.60;;;5.97;;
60582;SDS011;46415;47.536;19.066;2023-05-20T11:28:56;7.68;;;6.22;;
60582;SDS011;46415;47.536;19.066;2023-05-20T11:32:02;7.03;;;5.75;;
60582;SDS011;46415;47.536;19.066;2023-05-20T11:35:05;9.82;;;6.45;;
60582;SDS011;46415;47.536;19.066;2023-05-20T11:38:09;7.62;;;6.07;;
60582;SDS011;46415;47.536;19.066;2023-05-20T11:41:13;8.05;;;6.12;;
60582;SDS011;46415;47.536;19.066;2023-05-20T11:44:16;7.28;;;6.00;;
60582;SDS011;46415;47.536;19.066;2023-05-20T11:47:24;8.80;;;6.12;;
60582;SDS011;46415;47.536;19.066;2023-05-20T11:50:33;6.80;;;6.10;;
60582;SDS011;46415;47.536;19.066;2023-05-20T11:53:43;8.52;;;6.37;;
60582;SDS011;46415;47.536;19.066;2023-05-20T11:56:48;6.40;;;5.75;;
60582;SDS011;46415;47.536;19.066;2023-05-20T11:59:51;9.02;;;5.70;;
60582;SDS011;46415;47.536;19.066;2023-05-20T12:02:54;7.90;;;5.97;;
60582;SDS011;46415;47.536;19.066;2023-05-20T12:05:59;6.85;;;6.10;;
60582;SDS011;46415;47.536;19.066;2023-05-20T12:09:03;7.15;;;6.32;;
60582;SDS011;46415;47.536;19.066;2023-05-20T12:12:10;11.20;;;6.10;;
60582;SDS011;46415;47.536;19.066;2023-05-20T12:15:15;6.20;;;5.60;;
60582;SDS011;46415;47.536;19.066;2023-05-20T12:18:18;7.87;;;5.60;;
60582;SDS011;46415;47.536;19.066;2023-05-20T12:21:21;6.97;;;5.82;;
60582;SDS011;46415;47.536;19.066;2023-05-20T12:24:24;10.63;;;5.95;;
60582;SDS011;46415;47.536;19.066;2023-05-20T12:27:26;7.82;;;6.05;;
60582;SDS011;46415;47.536;19.066;2023-05-20T12:30:29;8.18;;;6.43;;
60582;SDS011;46415;47.536;19.066;2023-05-20T12:33:32;8.73;;;6.03;;
60582;SDS011;46415;47.536;19.066;2023-05-20T12:36:35;6.70;;;6.00;;
60582;SDS011;46415;47.536;19.066;2023-05-20T12:39:38;6.50;;;5.90;;
60582;SDS011;46415;47.536;19.066;2023-05-20T12:42:43;7.55;;;6.22;;
60582;SDS011;46415;47.536;19.066;2023-05-20T12:45:45;6.75;;;6.05;;
60582;SDS011;46415;47.536;19.066;2023-05-20T12:48:48;7.70;;;6.37;;
60582;SDS011;46415;47.536;19.066;2023-05-20T12:51:51;6.72;;;5.78;;
60582;SDS011;46415;47.536;19.066;2023-05-20T12:54:54;6.87;;;5.70;;
60582;SDS011;46415;47.536;19.066;2023-05-20T12:57:58;8.45;;;6.50;;
60582;SDS011;46415;47.536;19.066;2023-05-20T13:01:01;7.07;;;6.37;;
60582;SDS011;46415;47.536;19.066;2023-05-20T13:04:03;7.43;;;6.10;;
60582;SDS011;46415;47.536;19.066;2023-05-20T13:07:06;6.82;;;6.12;;
60582;SDS011;46415;47.536;19.066;2023-05-20T13:10:09;6.85;;;6.15;;
60582;SDS011;46415;47.536;19.066;2023-05-20T13:13:13;6.15;;;5.55;;
60582;SDS011;46415;47.536;19.066;2023-05-20T13:16:22;6.95;;;6.25;;
60582;SDS011;46415;47.536;19.066;2023-05-20T13:19:26;6.70;;;6.00;;
60582;SDS011;46415;47.536;19.066;2023-05-20T13:22:29;6.70;;;6.07;;
60582;SDS011;46415;47.536;19.066;2023-05-20T13:25:32;7.45;;;6.60;;
60582;SDS011;46415;47.536;19.066;2023-05-20T13:28:35;7.55;;;6.35;;
60582;SDS011;46415;47.536;19.066;2023-05-20T13:31:38;6.90;;;6.20;;
60582;SDS011;46415;47.536;19.066;2023-05-20T13:34:41;7.43;;;6.47;;
60582;SDS011;46415;47.536;19.066;2023-05-20T13:37:44;6.80;;;6.20;;
60582;SDS011;46415;47.536;19.066;2023-05-20T13:40:47;7.62;;;6.65;;
60582;SDS011;46415;47.536;19.066;2023-05-20T13:43:51;6.97;;;6.05;;
60582;SDS011;46415;47.536;19.066;2023-05-20T13:46:53;7.37;;;6.35;;
60582;SDS011;46415;47.536;19.066;2023-05-20T13:49:56;6.68;;;6.05;;
60582;SDS011;46415;47.536;19.066;2023-05-20T13:53:02;8.43;;;6.37;;
60582;SDS011;46415;47.536;19.066;2023-05-20T13:56:05;7.97;;;6.25;;
60582;SDS011;46415;47.536;19.066;2023-05-20T13:59:10;6.62;;;5.97;;
60582;SDS011;46415;47.536;19.066;2023-05-20T14:02:13;7.35;;;6.20;;
60582;SDS011;46415;47.536;19.066;2023-05-20T14:05:16;7.00;;;6.30;;
60582;SDS011;46415;47.536;19.066;2023-05-20T14:08:21;8.20;;;6.57;;
60582;SDS011;46415;47.536;19.066;2023-05-20T14:11:24;6.25;;;5.65;;
60582;SDS011;46415;47.536;19.066;2023-05-20T14:14:27;7.68;;;6.60;;
60582;SDS011;46415;47.536;19.066;2023-05-20T14:17:30;7.47;;;6.37;;
60582;SDS011;46415;47.536;19.066;2023-05-20T14:20:33;6.35;;;5.75;;
60582;SDS011;46415;47.536;19.066;2023-05-20T14:23:37;8.10;;;6.93;;
60582;SDS011;46415;47.536;19.066;2023-05-20T14:26:42;8.82;;;6.87;;
60582;SDS011;46415;47.536;19.066;2023-05-20T14:29:45;6.68;;;5.82;;
60582;SDS011;46415;47.536;19.066;2023-05-20T14:32:47;7.30;;;6.53;;
60582;SDS011;46415;47.536;19.066;2023-05-20T14:35:50;7.18;;;6.00;;
60582;SDS011;46415;47.536;19.066;2023-05-20T14:38:53;9.20;;;6.80;;
60582;SDS011;46415;47.536;19.066;2023-05-20T14:41:56;7.25;;;6.53;;
60582;SDS011;46415;47.536;19.066;2023-05-20T14:44:59;6.97;;;6.12;;
60582;SDS011;46415;47.536;19.066;2023-05-20T14:48:02;6.87;;;6.18;;
60582;SDS011;46415;47.536;19.066;2023-05-20T14:51:04;10.85;;;7.05;;
60582;SDS011;46415;47.536;19.066;2023-05-20T14:54:07;6.68;;;5.85;;
60582;SDS011;46415;47.536;19.066;2023-05-20T14:57:11;8.93;;;6.50;;
60582;SDS011;46415;47.536;19.066;2023-05-20T15:00:14;7.05;;;6.18;;
60582;SDS011;46415;47.536;19.066;2023-05-20T15:03:17;7.12;;;6.37;;
60582;SDS011;46415;47.536;19.066;2023-05-20T15:06:21;6.90;;;6.18;;
60582;SDS011;46415;47.536;19.066;2023-05-20T15:09:23;9.95;;;6.22;;
60582;SDS011;46415;47.536;19.066;2023-05-20T15:12:26;7.28;;;5.85;;
60582;SDS011;46415;47.536;19.066;2023-05-20T15:15:29;8.18;;;6.55;;
60582;SDS011;46415;47.536;19.066;2023-05-20T15:18:32;8.10;;;5.90;;
60582;SDS011;46415;47.536;19.066;2023-05-20T15:21:34;9.55;;;6.37;;
60582;SDS011;46415;47.536;19.066;2023-05-20T15:24:37;7.10;;;6.12;;
60582;SDS011;46415;47.536;19.066;2023-05-20T15:27:40;7.22;;;6.05;;
60582;SDS011;46415;47.536;19.066;2023-05-20T15:30:50;6.32;;;5.72;;
60582;SDS011;46415;47.536;19.066;2023-05-20T15:33:54;7.03;;;6.10;;
60582;SDS011;46415;47.536;19.066;2023-05-20T15:36:58;7.07;;;6.18;;
60582;SDS011;46415;47.536;19.066;2023-05-20T15:40:00;5.97;;;5.35;;
60582;SDS011;46415;47.536;19.066;2023-05-20T15:43:03;6.12;;;5.43;;
60582;SDS011;46415;47.536;19.066;2023-05-20T15:46:07;6.45;;;5.75;;
60582;SDS011;46415;47.536;19.066;2023-05-20T15:49:10;6.30;;;5.70;;
60582;SDS011;46415;47.536;19.066;2023-05-20T15:52:13;7.05;;;5.97;;
60582;SDS011;46415;47.536;19.066;2023-05-20T15:55:17;6.00;;;5.50;;
60582;SDS011;46415;47.536;19.066;2023-05-20T15:58:19;6.12;;;5.53;;
60582;SDS011;46415;47.536;19.066;2023-05-20T16:01:22;6.62;;;5.32;;
60582;SDS011;46415;47.536;19.066;2023-05-20T16:04:27;6.80;;;5.90;;
60582;SDS011;46415;47.536;19.066;2023-05-20T16:07:30;6.22;;;5.62;;
60582;SDS011;46415;47.536;19.066;2023-05-20T16:10:33;6.15;;;5.55;;
60582;SDS011;46415;47.536;19.066;2023-05-20T16:13:36;7.65;;;5.30;;
60582;SDS011;46415;47.536;19.066;2023-05-20T16:16:39;7.15;;;6.10;;
60582;SDS011;46415;47.536;19.066;2023-05-20T16:19:42;6.25;;;5.65;;
60582;SDS011;46415;47.536;19.066;2023-05-20T16:22:45;6.97;;;6.28;;
60582;SDS011;46415;47.536;19.066;2023-05-20T16:25:47;7.43;;;5.80;;
60582;SDS011;46415;47.536;19.066;2023-05-20T16:28:50;7.22;;;6.37;;
60582;SDS011;46415;47.536;19.066;2023-05-20T16:31:53;7.82;;;6.12;;
60582;SDS011;46415;47.536;19.066;2023-05-20T16:34:56;7.43;;;6.47;;
60582;SDS011;46415;47.536;19.066;2023-05-20T16:37:59;7.00;;;6.30;;
60582;SDS011;46415;47.536;19.066;2023-05-20T16:41:02;10.80;;;6.55;;
60582;SDS011;46415;47.536;19.066;2023-05-20T16:44:04;7.47;;;6.28;;
60582;SDS011;46415;47.536;19.066;2023-05-20T16:47:07;6.47;;;5.87;;
60582;SDS011;46415;47.536;19.066;2023-05-20T16:50:10;9.07;;;6.40;;
60582;SDS011;46415;47.536;19.066;2023-05-20T16:53:13;6.80;;;6.10;;
60582;SDS011;46415;47.536;19.066;2023-05-20T16:56:18;6.65;;;6.03;;
60582;SDS011;46415;47.536;19.066;2023-05-20T16:59:23;7.97;;;6.37;;
60582;SDS011;46415;47.536;19.066;2023-05-20T17:02:29;11.02;;;6.40;;
60582;SDS011;46415;47.536;19.066;2023-05-20T17:05:32;9.75;;;6.20;;
60582;SDS011;46415;47.536;19.066;2023-05-20T17:08:35;8.48;;;6.97;;
60582;SDS011;46415;47.536;19.066;2023-05-20T17:11:39;7.32;;;6.28;;
60582;SDS011;46415;47.536;19.066;2023-05-20T17:14:42;8.55;;;6.03;;
60582;SDS011;46415;47.536;19.066;2023-05-20T17:17:45;6.80;;;5.90;;
60582;SDS011;46415;47.536;19.066;2023-05-20T17:20:48;7.82;;;6.10;;
60582;SDS011;46415;47.536;19.066;2023-05-20T17:23:50;6.37;;;5.53;;
60582;SDS011;46415;47.536;19.066;2023-05-20T17:26:53;7.40;;;5.80;;
60582;SDS011;46415;47.536;19.066;2023-05-20T17:29:56;6.30;;;5.65;;
60582;SDS011;46415;47.536;19.066;2023-05-20T17:32:59;5.95;;;5.32;;
60582;SDS011;46415;47.536;19.066;2023-05-20T17:36:03;6.87;;;5.18;;
60582;SDS011;46415;47.536;19.066;2023-05-20T17:39:06;6.95;;;5.70;;
60582;SDS011;46415;47.536;19.066;2023-05-20T17:42:11;6.65;;;5.95;;
60582;SDS011;46415;47.536;19.066;2023-05-20T17:45:13;6.37;;;5.47;;
60582;SDS011;46415;47.536;19.066;2023-05-20T17:48:16;6.10;;;5.30;;
60582;SDS011;46415;47.536;19.066;2023-05-20T17:51:19;7.85;;;5.30;;
60582;SDS011;46415;47.536;19.066;2023-05-20T17:54:23;6.57;;;5.40;;
60582;SDS011;46415;47.536;19.066;2023-05-20T17:57:26;7.78;;;5.40;;
60582;SDS011;46415;47.536;19.066;2023-05-20T18:00:29;8.30;;;6.07;;
60582;SDS011;46415;47.536;19.066;2023-05-20T18:03:36;7.35;;;5.70;;
60582;SDS011;46415;47.536;19.066;2023-05-20T18:06:41;5.90;;;5.30;;
60582;SDS011;46415;47.536;19.066;2023-05-20T18:09:44;6.20;;;5.40;;
60582;SDS011;46415;47.536;19.066;2023-05-20T18:12:47;6.18;;;5.57;;
60582;SDS011;46415;47.536;19.066;2023-05-20T18:15:50;6.82;;;5.30;;
60582;SDS011;46415;47.536;19.066;2023-05-20T18:18:54;8.55;;;5.53;;
60582;SDS011;46415;47.536;19.066;2023-05-20T18:21:57;6.57;;;5.80;;